Livonia, Missouri
Current Conditions -  °F | °C
As of 12:30 AM on Saturday 20 Dec 2014 (Local Time) from KTVK Reporting Station
Haze Haze  
Wind Chill: 26°   Ceiling: 100
Heat Index: 32°   Visibility: 3mi
Dew Point: 32°   Wind: 7mph
Humidity: 100%   Direction: 150°SSE
Pressure: 30.21"   Gusts: NA
Location:  40.49°N, 92.7°W
Report Text: KTVK 200630Z AUTO 15006KT 3SM BR OVC001 00/00 A3021 RMK AO2
Loading
Personal Weather Stations






























Interactive Weather Map New forecast layout! Learn more

10-Day Weather Forecast

Advertisements
Track Severe Weather on mobile